createdAt,value
2019-04-06T08:15:52.783Z,12176.00
2019-04-06T08:16:52.738Z,12076.00
2019-04-06T08:17:52.978Z,11840.00
2019-04-06T08:18:52.714Z,11716.00
2019-04-06T08:19:52.727Z,11992.00
2019-04-06T08:20:52.693Z,12984.00
2019-04-06T08:21:52.681Z,13644.00
2019-04-06T08:22:52.670Z,13500.00
2019-04-06T08:23:52.657Z,13256.00
2019-04-06T08:24:52.654Z,13072.00
2019-04-06T08:25:52.872Z,13252.00
2019-04-06T08:26:52.622Z,13664.00
2019-04-06T08:27:52.837Z,12280.00
2019-04-06T08:29:00.616Z,13184.00
2019-04-06T08:29:53.584Z,13768.00
2019-04-06T08:30:52.600Z,14280.00
2019-04-06T08:31:52.564Z,14716.00
2019-04-06T08:32:52.555Z,15228.00
2019-04-06T08:33:52.773Z,15756.00
2019-04-06T08:34:52.530Z,16164.00
2019-04-06T08:35:52.518Z,16500.00
2019-04-06T08:36:52.527Z,16224.00
2019-04-06T08:37:52.534Z,16008.00
2019-04-06T08:38:52.484Z,16044.00
2019-04-06T08:39:52.497Z,16032.00
2019-04-06T08:40:52.463Z,16488.00
2019-04-06T08:41:52.471Z,17200.00
2019-04-06T08:42:52.440Z,17984.00
2019-04-06T08:43:52.531Z,18368.00
2019-04-06T08:44:52.414Z,18496.00
2019-04-06T08:45:52.408Z,18688.00
2019-04-06T08:46:52.416Z,18624.00
2019-04-06T08:47:52.380Z,18336.00
2019-04-06T08:48:52.467Z,18464.00
2019-04-06T08:49:52.359Z,18560.00
2019-04-06T08:50:52.346Z,18816.00
2019-04-06T08:51:52.336Z,19328.00
2019-04-06T08:52:52.344Z,20096.00
2019-04-06T08:53:52.313Z,21632.00
2019-04-06T08:54:52.301Z,23392.00
2019-04-06T08:55:52.297Z,25280.00
2019-04-06T08:56:52.279Z,26784.00
2019-04-06T08:57:52.544Z,29728.00
2019-04-06T08:58:52.257Z,32096.00
2019-04-06T08:59:52.369Z,33152.00
2019-04-06T09:00:52.428Z,34720.00
2019-04-06T09:01:52.219Z,35424.00
2019-04-06T09:02:52.229Z,33888.00
2019-04-06T09:03:52.197Z,31680.00
2019-04-06T09:04:52.191Z,30080.00
2019-04-06T09:05:52.397Z,29984.00
2019-04-06T09:06:52.165Z,30144.00
2019-04-06T09:07:52.360Z,29600.00
2019-04-06T09:08:52.169Z,27104.00
2019-04-06T09:09:52.281Z,24192.00
2019-04-06T09:10:52.116Z,23264.00
2019-04-06T09:11:52.108Z,22528.00
2019-04-06T09:12:52.167Z,20416.00
2019-04-06T09:13:52.110Z,18944.00
2019-04-06T09:14:52.231Z,18272.00
2019-04-06T09:15:52.060Z,17600.00
2019-04-06T09:16:52.182Z,17144.00
2019-04-06T09:17:52.038Z,16440.00
2019-04-06T09:18:52.050Z,15980.00
2019-04-06T09:19:52.013Z,15240.00
2019-04-06T09:20:52.002Z,14864.00
2019-04-06T09:21:51.991Z,14628.00
2019-04-06T09:22:51.980Z,15072.00
2019-04-06T09:23:51.973Z,16232.00
2019-04-06T09:24:51.977Z,15032.00
2019-04-06T09:25:51.945Z,13664.00
2019-04-06T09:26:51.932Z,13012.00
2019-04-06T09:27:51.923Z,12400.00
2019-04-06T09:28:51.911Z,11408.00
2019-04-06T09:29:52.023Z,10616.00
2019-04-06T09:30:51.890Z,10384.00
2019-04-06T09:31:51.877Z,10548.00
2019-04-06T09:32:51.866Z,10272.00
2019-04-06T09:33:51.911Z,10260.00
2019-04-06T09:34:52.066Z,10640.00
2019-04-06T09:35:51.829Z,11100.00
2019-04-06T09:36:51.819Z,11460.00
2019-04-06T09:37:51.806Z,11592.00
2019-04-06T09:38:51.911Z,12308.00
2019-04-06T09:39:51.779Z,14208.00
2019-04-06T09:40:51.966Z,16984.00
2019-04-06T09:41:51.757Z,18944.00
2019-04-06T09:42:51.744Z,18272.00
2019-04-06T09:43:51.735Z,18208.00
2019-04-06T09:44:51.721Z,20288.00
2019-04-06T09:45:51.734Z,20960.00
2019-04-06T09:46:51.702Z,20672.00
2019-04-06T09:47:51.686Z,19808.00
2019-04-06T09:48:51.674Z,19168.00
2019-04-06T09:49:51.664Z,19200.00
2019-04-06T09:50:51.753Z,18464.00
2019-04-06T09:51:51.659Z,17984.00
2019-04-06T09:52:51.629Z,16756.00
2019-04-06T09:53:51.616Z,17068.00
2019-04-06T09:54:51.806Z,16692.00
2019-04-06T09:55:51.639Z,16752.00
2019-04-06T09:56:51.604Z,16736.00
2019-04-06T09:57:51.572Z,16072.00
2019-04-06T09:58:51.557Z,15648.00
2019-04-06T09:59:51.768Z,15524.00
2019-04-06T10:00:51.536Z,14996.00
2019-04-06T10:01:51.523Z,14916.00
2019-04-06T10:02:51.529Z,14184.00
2019-04-06T10:03:51.498Z,13636.00
2019-04-06T10:04:51.491Z,13416.00
2019-04-06T10:05:51.741Z,13016.00
2019-04-06T10:06:51.469Z,12980.00
2019-04-06T10:07:51.471Z,13388.00
2019-04-06T10:08:51.443Z,13912.00
2019-04-06T10:09:51.540Z,14032.00
2019-04-06T10:10:51.418Z,14052.00
2019-04-06T10:11:51.408Z,14080.00
2019-04-06T10:12:51.418Z,13644.00
2019-04-06T10:13:51.384Z,13848.00
2019-04-06T10:14:51.389Z,14708.00
2019-04-06T10:15:51.360Z,15144.00
2019-04-06T10:16:51.349Z,16176.00
2019-04-06T10:17:51.559Z,16564.00
2019-04-06T10:18:51.342Z,17440.00
2019-04-06T10:19:54.275Z,17984.00
2019-04-06T10:20:51.300Z,16828.00
2019-04-06T10:21:51.288Z,18432.00
2019-04-06T10:22:51.280Z,19872.00
2019-04-06T10:23:51.289Z,21728.00
2019-04-06T10:24:51.256Z,26272.00
2019-04-06T10:25:51.241Z,35232.00
2019-04-06T10:26:51.232Z,50464.00
2019-04-06T10:27:51.221Z,55360.00
2019-04-06T10:28:51.207Z,78880.00
2019-04-06T10:29:51.231Z,78272.00
2019-04-06T10:30:53.629Z,71584.00
2019-04-06T10:31:51.172Z,54272.00
2019-04-06T10:32:51.162Z,61984.00
2019-04-06T10:33:51.154Z,60288.00
2019-04-06T10:34:51.157Z,53696.00
2019-04-06T10:35:51.124Z,50048.00
2019-04-06T10:36:51.113Z,50592.00
2019-04-06T10:37:51.106Z,62496.00
2019-04-06T10:38:51.091Z,48832.00
2019-04-06T10:39:51.294Z,36288.00
2019-04-06T10:40:51.069Z,30624.00
2019-04-06T10:41:51.057Z,30080.00
2019-04-06T10:42:51.046Z,33824.00
2019-04-06T10:43:51.039Z,47104.00
2019-04-06T10:44:51.189Z,43744.00
2019-04-06T10:45:51.013Z,37824.00
2019-04-06T10:46:51.002Z,29696.00
2019-04-06T10:47:51.122Z,27520.00
2019-04-06T10:48:50.981Z,27840.00
2019-04-06T10:49:50.969Z,28928.00
2019-04-06T10:50:50.977Z,35680.00
2019-04-06T10:51:50.951Z,72160.00
2019-04-06T10:52:50.936Z,47328.00
2019-04-06T10:53:50.925Z,44480.00
2019-04-06T10:54:50.942Z,39616.00
2019-04-06T10:55:50.902Z,52768.00
2019-04-06T10:56:51.177Z,57568.00
2019-04-06T10:57:50.881Z,87584.00
2019-04-06T10:58:50.874Z,41888.00
2019-04-06T11:00:00.931Z,30944.00
2019-04-06T11:00:51.845Z,26400.00
2019-04-06T11:01:50.831Z,27936.00
2019-04-06T11:02:50.823Z,41568.00
2019-04-06T11:03:50.811Z,65408.00
2019-04-06T11:04:50.803Z,43392.00
2019-04-06T11:05:51.011Z,38880.00
2019-04-06T11:06:51.112Z,39648.00
2019-04-06T11:07:50.766Z,32256.00
2019-04-06T11:08:50.829Z,26592.00
2019-04-06T11:09:50.775Z,43456.00
2019-04-06T11:10:51.115Z,73856.00
2019-04-06T11:11:50.719Z,41856.00
2019-04-06T11:12:50.711Z,40512.00
2019-04-06T11:13:50.693Z,82816.00
2019-04-06T11:14:50.681Z,94912.00
2019-04-06T11:15:50.671Z,70112.00
2019-04-06T11:16:50.683Z,38432.00
2019-04-06T11:17:50.654Z,35232.00
2019-04-06T11:18:50.833Z,28768.00
2019-04-06T11:19:50.625Z,34848.00
2019-04-06T11:20:50.614Z,34944.00
2019-04-06T11:21:50.621Z,28928.00
2019-04-06T11:22:50.590Z,30112.00
2019-04-06T11:23:51.013Z,35776.00
2019-04-06T11:24:50.571Z,78912.00
2019-04-06T11:25:50.558Z,83328.00
2019-04-06T11:26:50.565Z,92928.00
2019-04-06T11:27:50.533Z,47424.00
2019-04-06T11:28:50.750Z,56160.00
2019-04-06T11:29:50.510Z,57728.00
2019-04-06T11:30:50.517Z,68608.00
2019-04-06T11:31:50.759Z,58368.00
2019-04-06T11:32:50.478Z,35872.00
2019-04-06T11:33:50.468Z,42912.00
2019-04-06T11:34:50.456Z,34848.00
2019-04-06T11:35:50.700Z,36928.00
2019-04-06T11:36:50.432Z,45920.00
2019-04-06T11:37:50.439Z,39104.00
2019-04-06T11:38:50.441Z,33184.00
2019-04-06T11:39:50.648Z,28288.00
2019-04-06T11:40:50.388Z,24736.00
2019-04-06T11:41:50.378Z,24160.00
2019-04-06T11:42:50.539Z,24416.00
2019-04-06T11:43:50.354Z,23936.00
2019-04-06T11:44:50.648Z,23808.00
2019-04-06T11:45:50.335Z,29920.00
2019-04-06T11:46:50.319Z,31232.00
2019-04-06T11:47:50.536Z,38400.00
2019-04-06T11:48:50.294Z,38048.00
2019-04-06T11:49:50.281Z,36448.00
2019-04-06T11:50:50.572Z,66496.00
2019-04-06T11:51:50.340Z,35008.00
2019-04-06T11:52:50.272Z,29152.00
2019-04-06T11:53:50.237Z,34496.00
2019-04-06T11:54:50.227Z,32288.00
2019-04-06T11:55:50.518Z,30272.00
2019-04-06T11:56:50.204Z,33184.00
2019-04-06T11:57:50.193Z,35264.00
2019-04-06T11:58:50.197Z,30304.00
2019-04-06T11:59:50.169Z,28448.00
2019-04-06T12:00:50.399Z,27488.00
2019-04-06T12:01:50.327Z,28864.00
2019-04-06T12:02:50.152Z,38560.00
2019-04-06T12:03:50.197Z,43936.00
2019-04-06T12:04:50.112Z,48448.00
2019-04-06T12:05:50.220Z,87552.00
2019-04-06T12:06:50.294Z,84384.00
2019-04-06T12:07:50.076Z,66880.00
2019-04-06T12:08:50.383Z,49120.00
2019-04-06T12:09:50.426Z,33792.00
2019-04-06T12:10:50.041Z,31904.00
2019-04-06T12:11:50.031Z,29312.00
2019-04-06T12:12:50.218Z,35456.00
2019-04-06T12:13:50.024Z,31840.00
2019-04-06T12:14:49.995Z,36864.00
2019-04-06T12:15:50.011Z,34656.00
2019-04-06T12:16:49.971Z,40256.00
2019-04-06T12:17:49.970Z,30752.00
2019-04-06T12:18:49.985Z,28928.00
2019-04-06T12:19:49.942Z,27392.00
2019-04-06T12:20:49.929Z,26016.00
2019-04-06T12:21:49.916Z,23712.00
2019-04-06T12:22:51.224Z,22368.00
2019-04-06T12:23:49.930Z,23200.00
2019-04-06T12:24:50.207Z,23136.00
2019-04-06T12:25:49.873Z,21952.00
2019-04-06T12:26:49.862Z,20480.00
2019-04-06T12:27:49.846Z,19072.00
2019-04-06T12:28:49.854Z,18880.00
2019-04-06T12:29:49.861Z,18464.00
2019-04-06T12:30:49.814Z,18784.00
2019-04-06T12:31:50.113Z,20544.00
2019-04-06T12:32:49.856Z,24544.00
2019-04-06T12:33:50.043Z,29600.00
2019-04-06T12:34:49.766Z,30272.00
2019-04-06T12:35:49.872Z,33888.00
2019-04-06T12:36:49.761Z,68864.00
2019-04-06T12:37:49.737Z,33920.00
2019-04-06T12:38:49.723Z,29120.00
2019-04-06T12:39:53.361Z,26560.00
2019-04-06T12:40:49.696Z,29472.00
2019-04-06T12:41:49.685Z,35328.00
2019-04-06T12:42:49.671Z,41536.00
2019-04-06T12:43:49.757Z,30400.00
2019-04-06T12:44:49.710Z,26112.00
2019-04-06T12:45:49.639Z,25440.00
2019-04-06T12:46:49.689Z,26720.00
2019-04-06T12:47:49.616Z,25824.00
2019-04-06T12:48:52.299Z,24320.00
2019-04-06T12:49:49.594Z,22336.00
2019-04-06T12:50:49.975Z,21760.00
2019-04-06T12:51:56.608Z,21056.00
2019-04-06T12:52:49.566Z,20288.00
2019-04-06T12:53:49.542Z,20064.00
2019-04-06T12:54:49.831Z,20384.00
2019-04-06T12:55:49.711Z,21536.00
2019-04-06T12:56:49.512Z,20832.00
2019-04-06T12:57:49.877Z,20096.00
2019-04-06T12:58:49.649Z,19360.00
2019-04-06T12:59:49.474Z,19072.00
2019-04-06T13:00:53.128Z,19648.00
2019-04-06T13:01:49.731Z,20128.00
2019-04-06T13:02:49.471Z,20352.00
2019-04-06T13:03:49.504Z,20256.00
2019-04-06T13:04:49.415Z,20288.00
2019-04-06T13:05:49.438Z,20832.00
2019-04-06T13:06:49.395Z,22016.00
2019-04-06T13:07:49.385Z,21984.00
2019-04-06T13:08:49.373Z,22400.00
2019-04-06T13:09:49.370Z,20672.00
2019-04-06T13:10:49.700Z,19968.00
2019-04-06T13:11:49.414Z,21024.00
2019-04-06T13:12:49.421Z,22688.00
2019-04-06T13:13:49.317Z,23840.00
2019-04-06T13:14:49.300Z,23808.00
2019-04-06T13:15:49.293Z,23328.00
2019-04-06T13:16:49.299Z,23936.00
2019-04-06T13:17:49.378Z,24832.00
2019-04-06T13:18:49.645Z,24832.00
2019-04-06T13:19:49.547Z,21728.00
2019-04-06T13:20:49.544Z,19552.00
2019-04-06T13:21:49.720Z,19136.00
2019-04-06T13:22:49.210Z,19456.00
2019-04-06T13:23:49.196Z,20576.00
2019-04-06T13:24:49.184Z,22784.00
2019-04-06T13:25:49.432Z,24384.00
2019-04-06T13:26:49.162Z,24224.00
2019-04-06T13:27:49.354Z,24992.00
2019-04-06T13:28:49.137Z,26016.00
2019-04-06T13:29:49.126Z,24960.00
2019-04-06T13:31:00.952Z,23360.00
2019-04-06T13:31:50.468Z,23008.00
2019-04-06T13:32:49.112Z,22528.00
2019-04-06T13:33:49.079Z,21728.00
2019-04-06T13:34:49.067Z,22368.00
2019-04-06T13:35:49.056Z,23808.00
2019-04-06T13:36:49.045Z,36000.00
2019-04-06T13:37:49.210Z,32448.00
2019-04-06T13:38:49.020Z,66432.00
2019-04-06T13:39:49.014Z,58368.00
2019-04-06T13:40:49.144Z,44992.00
2019-04-06T13:41:48.983Z,42592.00
2019-04-06T13:42:48.996Z,46048.00
2019-04-06T13:43:49.079Z,55232.00
2019-04-06T13:44:49.284Z,56608.00
2019-04-06T13:45:48.938Z,62752.00
2019-04-06T13:46:48.926Z,49696.00
2019-04-06T13:47:48.963Z,32224.00
2019-04-06T13:48:48.908Z,30080.00
2019-04-06T13:49:48.895Z,33120.00
2019-04-06T13:50:48.885Z,50720.00
2019-04-06T13:51:48.872Z,52864.00
2019-04-06T13:52:48.860Z,51776.00
2019-04-06T13:53:48.938Z,51712.00
2019-04-06T13:54:48.839Z,35264.00
2019-04-06T13:55:48.829Z,26112.00
2019-04-06T13:56:48.832Z,24832.00
2019-04-06T13:57:48.803Z,22016.00
2019-04-06T13:58:48.840Z,20032.00
2019-04-06T13:59:48.837Z,19712.00
2019-04-06T14:00:49.061Z,20864.00
2019-04-06T14:01:48.762Z,24544.00
2019-04-06T14:02:49.152Z,25376.00
2019-04-06T14:03:49.212Z,39520.00
2019-04-06T14:04:48.915Z,17344.00
2019-04-06T14:05:48.711Z,16172.00
2019-04-06T14:06:48.699Z,15828.00
2019-04-06T14:07:48.688Z,16552.00
2019-04-06T14:08:48.777Z,19008.00
2019-04-06T14:09:48.771Z,17072.00
2019-04-06T14:10:48.665Z,16988.00
2019-04-06T14:11:48.641Z,19200.00
2019-04-06T14:12:48.631Z,20672.00
2019-04-06T14:13:48.880Z,20832.00
2019-04-06T14:14:48.629Z,22784.00
2019-04-06T14:15:48.599Z,24832.00
2019-04-06T14:16:48.870Z,25856.00
2019-04-06T14:17:48.574Z,29440.00
2019-04-06T14:18:48.562Z,39168.00
2019-04-06T14:19:48.568Z,40832.00
2019-04-06T14:20:48.537Z,32224.00
2019-04-06T14:21:48.623Z,18976.00
2019-04-06T14:22:49.451Z,18112.00
2019-04-06T14:23:48.503Z,16224.00
2019-04-06T14:24:48.513Z,17380.00
2019-04-06T14:25:48.481Z,17812.00
2019-04-06T14:26:48.814Z,18656.00
2019-04-06T14:27:48.773Z,17916.00
2019-04-06T14:28:48.444Z,19648.00
2019-04-06T14:29:48.433Z,22336.00
2019-04-06T14:30:48.439Z,30272.00
2019-04-06T14:31:48.537Z,46176.00
2019-04-06T14:32:48.742Z,46592.00
2019-04-06T14:33:48.385Z,48000.00
2019-04-06T14:34:48.374Z,49920.00
2019-04-06T14:35:48.380Z,51328.00
2019-04-06T14:36:48.354Z,50048.00
2019-04-06T14:37:48.340Z,44480.00
2019-04-06T14:38:48.332Z,28608.00
2019-04-06T14:39:48.317Z,37792.00
2019-04-06T14:40:48.324Z,30912.00
2019-04-06T14:41:48.612Z,25408.00
2019-04-06T14:42:48.282Z,22944.00
2019-04-06T14:43:48.272Z,21760.00
2019-04-06T14:44:48.337Z,24192.00
2019-04-06T14:45:48.269Z,19584.00
2019-04-06T14:46:48.241Z,21984.00
2019-04-06T14:47:48.245Z,20256.00
2019-04-06T14:48:48.222Z,21344.00
2019-04-06T14:49:48.207Z,25312.00
2019-04-06T14:50:48.585Z,40576.00
2019-04-06T14:51:48.183Z,32800.00
2019-04-06T14:52:48.512Z,23680.00
2019-04-06T14:53:48.160Z,33728.00
2019-04-06T14:54:48.148Z,31936.00
2019-04-06T14:55:48.156Z,30880.00
2019-04-06T14:56:48.393Z,26560.00
2019-04-06T14:57:48.116Z,23968.00
2019-04-06T14:58:48.250Z,18496.00
2019-04-06T14:59:48.091Z,17152.00
2019-04-06T15:00:48.494Z,15576.00
2019-04-06T15:01:56.777Z,15068.00
2019-04-06T15:02:49.279Z,14816.00
2019-04-06T15:03:48.050Z,14484.00
2019-04-06T15:04:48.035Z,14472.00
2019-04-06T15:05:48.096Z,14364.00
2019-04-06T15:06:48.013Z,14924.00
2019-04-06T15:07:48.007Z,14864.00
2019-04-06T15:08:47.990Z,14604.00
2019-04-06T15:09:47.983Z,14812.00
2019-04-06T15:10:48.302Z,14964.00
2019-04-06T15:11:47.981Z,15520.00
2019-04-06T15:12:47.952Z,17088.00
2019-04-06T15:13:47.933Z,17632.00
2019-04-06T15:14:47.928Z,17472.00
2019-04-06T15:15:47.910Z,16340.00
2019-04-06T15:16:48.228Z,15716.00
2019-04-06T15:17:48.197Z,14336.00
2019-04-06T15:18:47.877Z,12968.00
2019-04-06T15:19:47.864Z,11844.00
2019-04-06T15:20:47.851Z,11936.00
2019-04-06T15:21:48.130Z,12196.00
2019-04-06T15:22:47.828Z,11888.00
2019-04-06T15:23:47.816Z,11152.00
2019-04-06T15:24:47.803Z,11004.00
2019-04-06T15:25:47.854Z,10880.00
2019-04-06T15:26:47.803Z,10676.00
2019-04-06T15:27:47.773Z,10416.00
2019-04-06T15:28:47.758Z,10028.00
2019-04-06T15:29:47.752Z,9892.00
2019-04-06T15:30:47.736Z,10732.00
2019-04-06T15:31:50.925Z,12572.00
2019-04-06T15:32:47.851Z,14256.00
2019-04-06T15:33:48.054Z,15472.00
2019-04-06T15:34:47.687Z,15372.00
2019-04-06T15:35:47.680Z,15100.00
2019-04-06T15:36:47.667Z,13572.00
2019-04-06T15:37:47.870Z,12424.00
2019-04-06T15:38:47.642Z,10556.00
2019-04-06T15:39:47.841Z,9184.00
2019-04-06T15:40:47.617Z,8848.00
2019-04-06T15:41:55.767Z,8808.00
2019-04-06T15:42:48.612Z,8904.00
2019-04-06T15:43:47.585Z,8692.00
2019-04-06T15:44:47.571Z,8912.00
2019-04-06T15:45:48.039Z,9304.00
2019-04-06T15:46:47.550Z,9408.00
2019-04-06T15:47:47.561Z,9708.00
2019-04-06T15:48:47.531Z,10032.00
2019-04-06T15:49:47.517Z,10156.00
2019-04-06T15:50:47.503Z,9852.00
2019-04-06T15:51:47.539Z,9604.00
2019-04-06T15:52:47.901Z,9496.00
2019-04-06T15:53:47.572Z,9372.00
2019-04-06T15:54:47.458Z,9436.00
2019-04-06T15:55:47.446Z,9376.00
2019-04-06T15:56:47.433Z,8896.00
2019-04-06T15:57:47.426Z,8464.00
2019-04-06T15:58:47.428Z,8500.00
2019-04-06T15:59:47.822Z,8752.00
2019-04-06T16:00:47.397Z,9236.00
2019-04-06T16:01:47.379Z,9372.00
2019-04-06T16:02:47.478Z,9852.00
2019-04-06T16:03:47.527Z,10492.00
2019-04-06T16:04:47.344Z,10800.00
2019-04-06T16:05:47.339Z,11224.00
2019-04-06T16:06:47.712Z,11640.00
2019-04-06T16:07:47.310Z,11872.00
2019-04-06T16:08:47.335Z,12188.00
2019-04-06T16:09:47.291Z,12360.00
2019-04-06T16:10:47.284Z,11680.00
2019-04-06T16:11:47.263Z,11044.00
2019-04-06T16:12:47.253Z,10724.00
2019-04-06T16:13:48.678Z,10432.00
2019-04-06T16:14:47.247Z,10200.00
2019-04-06T16:15:47.218Z,10448.00
2019-04-06T16:16:47.519Z,10752.00
2019-04-06T16:17:47.196Z,10472.00
2019-04-06T16:18:47.343Z,10532.00
2019-04-06T16:19:47.309Z,11776.00
2019-04-06T16:20:47.160Z,12712.00
2019-04-06T16:21:47.180Z,12304.00
2019-04-06T16:22:47.520Z,11844.00
2019-04-06T16:23:47.128Z,11496.00
2019-04-06T16:24:47.142Z,11136.00
2019-04-06T16:25:47.442Z,11036.00
2019-04-06T16:26:47.475Z,11512.00
2019-04-06T16:27:47.084Z,11936.00
2019-04-06T16:28:47.070Z,11488.00
2019-04-06T16:29:47.098Z,10644.00
2019-04-06T16:30:47.185Z,9792.00
2019-04-06T16:31:47.038Z,8820.00
2019-04-06T16:32:47.024Z,7756.00
2019-04-06T16:33:47.092Z,6948.00
2019-04-06T16:34:47.036Z,6596.00
2019-04-06T16:35:47.007Z,6548.00
2019-04-06T16:36:46.978Z,6472.00
2019-04-06T16:37:46.967Z,6432.00
2019-04-06T16:38:46.957Z,6472.00
2019-04-06T16:39:46.942Z,6560.00
2019-04-06T16:40:47.142Z,6636.00
2019-04-06T16:41:46.922Z,6568.00
2019-04-06T16:42:47.068Z,6648.00
2019-04-06T16:43:46.900Z,6692.00
2019-04-06T16:44:46.887Z,6836.00
2019-04-06T16:45:46.947Z,6852.00
2019-04-06T16:46:47.022Z,6836.00
2019-04-06T16:47:46.856Z,6700.00
2019-04-06T16:48:46.846Z,6792.00
2019-04-06T16:49:46.943Z,6860.00
2019-04-06T16:50:47.050Z,6740.00
2019-04-06T16:51:47.022Z,6852.00
2019-04-06T16:52:47.090Z,6980.00
2019-04-06T16:53:47.111Z,6972.00
2019-04-06T16:54:46.774Z,6916.00
2019-04-06T16:55:46.763Z,6464.00
2019-04-06T16:56:46.768Z,5784.00
2019-04-06T16:57:47.058Z,5416.00
2019-04-06T16:58:46.800Z,5180.00
2019-04-06T16:59:46.717Z,4948.00
2019-04-06T17:00:46.707Z,4648.00
2019-04-06T17:01:47.055Z,4364.00
2019-04-06T17:02:46.686Z,4088.00
2019-04-06T17:03:46.677Z,3976.00
2019-04-06T17:04:46.659Z,4024.00
2019-04-06T17:05:46.648Z,4152.00
2019-04-06T17:06:46.658Z,4284.00
2019-04-06T17:07:46.635Z,4512.00
2019-04-06T17:08:46.945Z,4472.00
2019-04-06T17:09:46.630Z,4244.00
2019-04-06T17:10:46.608Z,3900.00
2019-04-06T17:11:46.622Z,3704.00
2019-04-06T17:12:46.691Z,3696.00
2019-04-06T17:13:46.557Z,3736.00
2019-04-06T17:14:47.317Z,3728.00
2019-04-06T17:15:46.783Z,3704.00
2019-04-06T17:16:46.550Z,3620.00
2019-04-06T17:17:46.531Z,3500.00
2019-04-06T17:18:46.504Z,3388.00
2019-04-06T17:19:46.494Z,3204.00
2019-04-06T17:20:46.478Z,3136.00
2019-04-06T17:21:46.682Z,3152.00
2019-04-06T17:22:46.472Z,3048.00
2019-04-06T17:23:46.443Z,2944.00
2019-04-06T17:24:46.899Z,2844.00
2019-04-06T17:25:46.417Z,2752.00
2019-04-06T17:26:46.409Z,2664.00
2019-04-06T17:27:46.523Z,2564.00
2019-04-06T17:28:46.383Z,2476.00
2019-04-06T17:29:46.371Z,2392.00
2019-04-06T17:30:46.387Z,2316.00
2019-04-06T17:31:46.347Z,2248.00
2019-04-06T17:32:46.339Z,2176.00
2019-04-06T17:33:46.345Z,2120.00
2019-04-06T17:34:53.461Z,2064.00
2019-04-06T17:35:47.303Z,2000.00
2019-04-06T17:36:46.507Z,1944.00
2019-04-06T17:37:46.490Z,1884.00
2019-04-06T17:38:46.569Z,1828.00
2019-04-06T17:39:46.267Z,1768.00
2019-04-06T17:40:46.247Z,1716.00
2019-04-06T17:41:46.544Z,1648.00
2019-04-06T17:42:46.234Z,1580.00
2019-04-06T17:43:47.510Z,1508.00
2019-04-06T17:44:46.199Z,1440.00
2019-04-06T17:45:46.191Z,1368.00
2019-04-06T17:46:46.270Z,1304.00
2019-04-06T17:47:46.386Z,1236.00
2019-04-06T17:48:46.395Z,1172.00
2019-04-06T17:49:46.162Z,1116.00
2019-04-06T17:50:46.624Z,1060.00
2019-04-06T17:51:46.367Z,1008.00
2019-04-06T17:52:46.111Z,952.00
2019-04-06T17:53:46.542Z,900.00
2019-04-06T17:54:46.127Z,848.00
2019-04-06T17:55:46.075Z,792.00
2019-04-06T17:56:46.518Z,736.00
2019-04-06T17:57:46.053Z,680.00
2019-04-06T17:58:46.352Z,628.00
2019-04-06T17:59:46.029Z,584.00
2019-04-06T18:00:46.146Z,544.00
2019-04-06T18:01:46.006Z,504.00
2019-04-06T18:02:49.921Z,468.00
2019-04-06T18:03:46.407Z,432.00
2019-04-06T18:04:45.981Z,396.00
2019-04-06T18:05:46.286Z,364.00
2019-04-06T18:06:45.948Z,332.00
2019-04-06T18:07:45.936Z,304.00
2019-04-06T18:08:46.279Z,276.00
2019-04-06T18:09:46.003Z,256.00
2019-04-06T18:10:45.906Z,232.00
2019-04-06T18:11:46.127Z,208.00
2019-04-06T18:12:45.978Z,192.00
2019-04-06T18:13:46.201Z,172.00
2019-04-06T18:14:46.199Z,160.00
2019-04-06T18:15:46.139Z,144.00
2019-04-06T18:16:45.851Z,128.00
2019-04-06T18:17:45.825Z,116.00
2019-04-06T18:18:46.253Z,100.00
2019-04-06T18:19:46.384Z,88.00
2019-04-06T18:20:45.836Z,80.00
2019-04-06T18:21:45.883Z,72.00
2019-04-06T18:22:45.766Z,60.00
2019-04-06T18:23:46.133Z,52.00
2019-04-06T18:24:45.742Z,48.00
2019-04-06T18:25:45.729Z,40.00
2019-04-06T18:26:45.740Z,36.00
2019-04-06T18:27:46.098Z,28.00
2019-04-06T18:28:46.154Z,24.00
2019-04-06T18:29:45.682Z,20.00
2019-04-06T18:30:46.093Z,16.00
2019-04-06T18:31:45.807Z,16.00
2019-04-06T18:32:57.112Z,12.00
2019-04-06T18:33:46.917Z,8.00
2019-04-06T18:34:45.827Z,8.00
2019-04-06T18:35:45.612Z,8.00
2019-04-06T18:36:45.600Z,4.00
2019-04-06T18:37:45.906Z,4.00
2019-04-06T18:38:45.580Z,4.00
2019-04-06T18:39:45.928Z,4.00
2019-04-06T18:40:45.993Z,4.00
2019-04-06T18:41:45.546Z,4.00
2019-04-06T18:42:45.550Z,0.00
2019-04-06T18:43:45.518Z,0.00
2019-04-06T18:44:45.507Z,0.00
2019-04-06T18:45:45.494Z,0.00
2019-04-06T18:46:45.482Z,0.00
2019-04-06T18:47:45.475Z,0.00
2019-04-06T18:48:45.483Z,0.00
2019-04-06T18:49:45.446Z,0.00
2019-04-06T18:50:45.438Z,0.00
2019-04-06T18:51:45.422Z,0.00
2019-04-06T18:52:52.448Z,0.00
2019-04-06T18:53:45.436Z,0.00
2019-04-06T18:54:45.389Z,0.00
2019-04-06T18:55:45.381Z,0.00
2019-04-06T18:56:45.575Z,0.00
2019-04-06T18:57:45.778Z,0.00
2019-04-06T18:58:45.487Z,0.00
2019-04-06T18:59:45.331Z,0.00
2019-04-06T19:00:45.741Z,0.00
2019-04-06T19:01:45.307Z,0.00
2019-04-06T19:02:46.209Z,0.00
2019-04-06T19:03:45.324Z,0.00
2019-04-06T19:04:45.282Z,0.00
2019-04-06T19:05:45.276Z,0.00
2019-04-06T19:06:45.446Z,0.00
2019-04-06T19:07:45.238Z,0.00
2019-04-06T19:08:45.670Z,0.00
2019-04-06T19:09:45.240Z,0.00
2019-04-06T19:10:45.213Z,0.00
2019-04-06T19:11:54.547Z,0.00
2019-04-06T19:12:46.232Z,0.00
2019-04-06T19:13:45.535Z,0.00
2019-04-06T19:14:45.226Z,0.00
2019-04-06T19:15:45.479Z,0.00
2019-04-06T19:16:45.881Z,0.00
2019-04-06T19:17:45.198Z,0.00
2019-04-06T19:18:45.503Z,0.00
2019-04-06T19:19:45.549Z,0.00
2019-04-06T19:20:45.111Z,0.00
2019-04-06T19:21:45.079Z,0.00
2019-04-06T19:22:45.066Z,0.00
2019-04-06T19:23:45.056Z,0.00
2019-04-06T19:24:45.128Z,0.00
2019-04-06T19:25:45.824Z,0.00
2019-04-06T19:26:45.078Z,0.00
2019-04-06T19:27:45.305Z,0.00
2019-04-06T19:28:44.998Z,0.00
2019-04-06T19:29:44.990Z,0.00
2019-04-06T19:30:45.129Z,0.00
2019-04-06T19:31:44.963Z,0.00
2019-04-06T19:32:44.952Z,0.00
2019-04-06T19:33:45.646Z,0.00
2019-04-06T19:34:45.424Z,0.00
2019-04-06T19:35:44.949Z,0.00
2019-04-06T19:36:45.337Z,0.00
2019-04-06T19:37:44.894Z,0.00
2019-04-06T19:38:44.883Z,0.00
2019-04-06T19:39:45.050Z,0.00
2019-04-06T19:40:44.990Z,0.00
2019-04-06T19:41:44.850Z,0.00
2019-04-06T19:42:44.837Z,0.00
2019-04-06T19:43:45.308Z,0.00
2019-04-06T19:44:44.812Z,0.00
2019-04-06T19:45:44.848Z,0.00
2019-04-06T19:46:44.791Z,0.00
2019-04-06T19:47:44.778Z,0.00
2019-04-06T19:48:44.841Z,0.00
2019-04-06T19:49:44.760Z,0.00
2019-04-06T19:50:44.831Z,0.00
2019-04-06T19:51:44.751Z,0.00
2019-04-06T19:52:44.725Z,0.00
2019-04-06T19:53:44.711Z,0.00
2019-04-06T19:54:44.701Z,0.00
2019-04-06T19:55:44.687Z,0.00
2019-04-06T19:56:44.701Z,0.00
2019-04-06T19:57:45.207Z,0.00
2019-04-06T19:58:44.766Z,0.00
2019-04-06T19:59:44.700Z,0.00
2019-04-06T20:00:44.634Z,0.00
2019-04-06T20:01:44.641Z,0.00
2019-04-06T20:02:44.758Z,0.00
2019-04-06T20:03:44.618Z,0.00
2019-04-06T20:04:44.598Z,0.00
2019-04-06T20:05:44.573Z,0.00
2019-04-06T20:06:44.564Z,0.00
2019-04-06T20:07:44.613Z,0.00
2019-04-06T20:08:44.540Z,0.00
2019-04-06T20:09:44.785Z,0.00
2019-04-06T20:10:44.517Z,0.00
2019-04-06T20:11:44.505Z,0.00
2019-04-06T20:12:44.512Z,0.00
2019-04-06T20:13:44.481Z,0.00
2019-04-06T20:14:44.470Z,0.00
2019-04-06T20:15:44.467Z,0.00
2019-04-06T20:16:44.449Z,0.00
2019-04-06T20:17:44.459Z,0.00